sensor_id;sensor_type;location;lat;lon;timestamp;P1;durP1;ratioP1;P2;durP2;ratioP2
60726;SDS011;46577;49.004;12.120;2023-05-10T00:00:14;5.10;;;4.13;;
60726;SDS011;46577;49.004;12.120;2023-05-10T00:02:39;5.17;;;4.40;;
60726;SDS011;46577;49.004;12.120;2023-05-10T00:05:05;5.20;;;4.20;;
60726;SDS011;46577;49.004;12.120;2023-05-10T00:07:31;12.57;;;3.90;;
60726;SDS011;46577;49.004;12.120;2023-05-10T00:09:57;6.93;;;4.23;;
60726;SDS011;46577;49.004;12.120;2023-05-10T00:12:23;7.07;;;4.20;;
60726;SDS011;46577;49.004;12.120;2023-05-10T00:14:48;5.67;;;4.50;;
60726;SDS011;46577;49.004;12.120;2023-05-10T00:17:14;5.03;;;3.70;;
60726;SDS011;46577;49.004;12.120;2023-05-10T00:19:40;11.97;;;3.83;;
60726;SDS011;46577;49.004;12.120;2023-05-10T00:22:05;5.33;;;4.43;;
60726;SDS011;46577;49.004;12.120;2023-05-10T00:24:31;4.20;;;3.73;;
60726;SDS011;46577;49.004;12.120;2023-05-10T00:26:56;6.27;;;3.67;;
60726;SDS011;46577;49.004;12.120;2023-05-10T00:29:22;4.00;;;3.60;;
60726;SDS011;46577;49.004;12.120;2023-05-10T00:31:47;8.60;;;3.70;;
60726;SDS011;46577;49.004;12.120;2023-05-10T00:34:13;4.80;;;3.77;;
60726;SDS011;46577;49.004;12.120;2023-05-10T00:36:39;4.67;;;4.03;;
60726;SDS011;46577;49.004;12.120;2023-05-10T00:39:04;5.47;;;4.00;;
60726;SDS011;46577;49.004;12.120;2023-05-10T00:41:30;5.77;;;3.90;;
60726;SDS011;46577;49.004;12.120;2023-05-10T00:43:58;7.07;;;3.80;;
60726;SDS011;46577;49.004;12.120;2023-05-10T00:46:24;4.87;;;4.10;;
60726;SDS011;46577;49.004;12.120;2023-05-10T00:48:50;5.33;;;4.50;;
60726;SDS011;46577;49.004;12.120;2023-05-10T00:51:16;4.20;;;3.80;;
60726;SDS011;46577;49.004;12.120;2023-05-10T00:53:42;4.53;;;3.73;;
60726;SDS011;46577;49.004;12.120;2023-05-10T00:56:10;5.83;;;4.23;;
60726;SDS011;46577;49.004;12.120;2023-05-10T00:58:37;6.33;;;4.60;;
60726;SDS011;46577;49.004;12.120;2023-05-10T01:01:03;11.93;;;4.30;;
60726;SDS011;46577;49.004;12.120;2023-05-10T01:03:29;5.13;;;4.60;;
60726;SDS011;46577;49.004;12.120;2023-05-10T01:05:56;7.10;;;4.20;;
60726;SDS011;46577;49.004;12.120;2023-05-10T01:08:22;12.83;;;4.70;;
60726;SDS011;46577;49.004;12.120;2023-05-10T01:10:47;5.80;;;4.13;;
60726;SDS011;46577;49.004;12.120;2023-05-10T01:13:16;4.63;;;3.60;;
60726;SDS011;46577;49.004;12.120;2023-05-10T01:15:50;11.70;;;4.47;;
60726;SDS011;46577;49.004;12.120;2023-05-10T01:18:16;5.13;;;4.33;;
60726;SDS011;46577;49.004;12.120;2023-05-10T01:20:46;6.23;;;4.20;;
60726;SDS011;46577;49.004;12.120;2023-05-10T01:26:22;14.87;;;5.17;;
60726;SDS011;46577;49.004;12.120;2023-05-10T01:34:42;5.47;;;4.07;;
60726;SDS011;46577;49.004;12.120;2023-05-10T01:37:21;5.20;;;4.03;;
60726;SDS011;46577;49.004;12.120;2023-05-10T01:42:29;4.77;;;4.27;;
60726;SDS011;46577;49.004;12.120;2023-05-10T01:47:44;5.93;;;4.50;;
60726;SDS011;46577;49.004;12.120;2023-05-10T01:50:43;7.80;;;4.30;;
60726;SDS011;46577;49.004;12.120;2023-05-10T01:53:11;6.30;;;4.20;;
60726;SDS011;46577;49.004;12.120;2023-05-10T01:55:41;5.43;;;4.30;;
60726;SDS011;46577;49.004;12.120;2023-05-10T01:58:15;5.70;;;4.13;;
60726;SDS011;46577;49.004;12.120;2023-05-10T02:00:45;10.13;;;4.67;;
60726;SDS011;46577;49.004;12.120;2023-05-10T02:03:12;5.90;;;5.30;;
60726;SDS011;46577;49.004;12.120;2023-05-10T02:05:39;7.50;;;5.10;;
60726;SDS011;46577;49.004;12.120;2023-05-10T02:08:09;6.93;;;4.80;;
60726;SDS011;46577;49.004;12.120;2023-05-10T02:10:35;5.40;;;4.67;;
60726;SDS011;46577;49.004;12.120;2023-05-10T02:13:02;8.33;;;4.50;;
60726;SDS011;46577;49.004;12.120;2023-05-10T02:15:31;9.93;;;5.00;;
60726;SDS011;46577;49.004;12.120;2023-05-10T02:17:58;8.80;;;4.67;;
60726;SDS011;46577;49.004;12.120;2023-05-10T02:20:27;5.53;;;5.03;;
60726;SDS011;46577;49.004;12.120;2023-05-10T02:22:54;6.10;;;4.50;;
60726;SDS011;46577;49.004;12.120;2023-05-10T02:25:22;10.30;;;4.93;;
60726;SDS011;46577;49.004;12.120;2023-05-10T02:27:49;6.17;;;4.43;;
60726;SDS011;46577;49.004;12.120;2023-05-10T02:30:16;12.07;;;5.30;;
60726;SDS011;46577;49.004;12.120;2023-05-10T02:32:43;7.70;;;4.90;;
60726;SDS011;46577;49.004;12.120;2023-05-10T02:35:10;5.93;;;5.33;;
60726;SDS011;46577;49.004;12.120;2023-05-10T02:37:37;11.30;;;5.70;;
60726;SDS011;46577;49.004;12.120;2023-05-10T02:40:04;9.63;;;5.37;;
60726;SDS011;46577;49.004;12.120;2023-05-10T02:42:31;8.33;;;5.27;;
60726;SDS011;46577;49.004;12.120;2023-05-10T02:45:00;5.90;;;5.30;;
60726;SDS011;46577;49.004;12.120;2023-05-10T02:47:27;7.30;;;5.30;;
60726;SDS011;46577;49.004;12.120;2023-05-10T02:49:54;9.63;;;5.87;;
60726;SDS011;46577;49.004;12.120;2023-05-10T02:52:21;7.10;;;5.13;;
60726;SDS011;46577;49.004;12.120;2023-05-10T02:54:52;8.50;;;6.40;;
60726;SDS011;46577;49.004;12.120;2023-05-10T02:57:31;7.30;;;5.80;;
60726;SDS011;46577;49.004;12.120;2023-05-10T02:59:58;8.97;;;6.20;;
60726;SDS011;46577;49.004;12.120;2023-05-10T03:02:25;9.23;;;6.63;;
60726;SDS011;46577;49.004;12.120;2023-05-10T03:04:51;15.90;;;6.53;;
60726;SDS011;46577;49.004;12.120;2023-05-10T03:07:17;8.17;;;5.83;;
60726;SDS011;46577;49.004;12.120;2023-05-10T03:09:46;9.70;;;6.87;;
60726;SDS011;46577;49.004;12.120;2023-05-10T03:15:19;8.00;;;5.77;;
60726;SDS011;46577;49.004;12.120;2023-05-10T03:20:46;10.40;;;7.93;;
60726;SDS011;46577;49.004;12.120;2023-05-10T03:25:43;12.20;;;7.87;;
60726;SDS011;46577;49.004;12.120;2023-05-10T03:28:10;9.67;;;7.27;;
60726;SDS011;46577;49.004;12.120;2023-05-10T03:30:39;10.50;;;7.93;;
60726;SDS011;46577;49.004;12.120;2023-05-10T03:33:06;13.20;;;7.40;;
60726;SDS011;46577;49.004;12.120;2023-05-10T03:35:31;11.83;;;8.50;;
60726;SDS011;46577;49.004;12.120;2023-05-10T03:37:57;10.33;;;7.80;;
60726;SDS011;46577;49.004;12.120;2023-05-10T03:40:23;11.90;;;8.40;;
60726;SDS011;46577;49.004;12.120;2023-05-10T03:42:49;10.53;;;7.90;;
60726;SDS011;46577;49.004;12.120;2023-05-10T03:45:15;14.70;;;8.60;;
60726;SDS011;46577;49.004;12.120;2023-05-10T03:47:40;16.10;;;8.83;;
60726;SDS011;46577;49.004;12.120;2023-05-10T03:50:06;16.80;;;9.00;;
60726;SDS011;46577;49.004;12.120;2023-05-10T03:52:32;13.13;;;10.60;;
60726;SDS011;46577;49.004;12.120;2023-05-10T03:54:58;17.53;;;10.10;;
60726;SDS011;46577;49.004;12.120;2023-05-10T03:57:23;12.50;;;9.50;;
60726;SDS011;46577;49.004;12.120;2023-05-10T03:59:49;18.03;;;9.70;;
60726;SDS011;46577;49.004;12.120;2023-05-10T04:02:15;12.83;;;9.77;;
60726;SDS011;46577;49.004;12.120;2023-05-10T04:04:41;12.57;;;9.10;;
60726;SDS011;46577;49.004;12.120;2023-05-10T04:07:06;11.50;;;8.93;;
60726;SDS011;46577;49.004;12.120;2023-05-10T04:09:32;16.93;;;9.80;;
60726;SDS011;46577;49.004;12.120;2023-05-10T04:11:58;12.57;;;9.27;;
60726;SDS011;46577;49.004;12.120;2023-05-10T04:14:25;11.60;;;10.07;;
60726;SDS011;46577;49.004;12.120;2023-05-10T04:16:51;15.30;;;9.73;;
60726;SDS011;46577;49.004;12.120;2023-05-10T04:19:16;14.97;;;9.77;;
60726;SDS011;46577;49.004;12.120;2023-05-10T04:21:42;14.23;;;9.87;;
60726;SDS011;46577;49.004;12.120;2023-05-10T04:24:07;10.57;;;8.80;;
60726;SDS011;46577;49.004;12.120;2023-05-10T04:26:33;13.93;;;9.77;;
60726;SDS011;46577;49.004;12.120;2023-05-10T04:28:59;14.97;;;9.53;;
60726;SDS011;46577;49.004;12.120;2023-05-10T04:31:24;11.77;;;9.67;;
60726;SDS011;46577;49.004;12.120;2023-05-10T04:33:50;14.73;;;9.93;;
60726;SDS011;46577;49.004;12.120;2023-05-10T04:36:16;12.23;;;8.97;;
60726;SDS011;46577;49.004;12.120;2023-05-10T04:38:42;13.83;;;10.07;;
60726;SDS011;46577;49.004;12.120;2023-05-10T04:41:08;14.30;;;10.13;;
60726;SDS011;46577;49.004;12.120;2023-05-10T04:43:34;13.43;;;10.07;;
60726;SDS011;46577;49.004;12.120;2023-05-10T04:46:01;20.57;;;10.40;;
60726;SDS011;46577;49.004;12.120;2023-05-10T04:48:27;20.97;;;11.50;;
60726;SDS011;46577;49.004;12.120;2023-05-10T04:50:52;13.17;;;10.10;;
60726;SDS011;46577;49.004;12.120;2023-05-10T04:53:18;20.37;;;10.83;;
60726;SDS011;46577;49.004;12.120;2023-05-10T04:55:43;14.17;;;10.17;;
60726;SDS011;46577;49.004;12.120;2023-05-10T04:58:09;18.03;;;10.70;;
60726;SDS011;46577;49.004;12.120;2023-05-10T05:00:35;16.73;;;11.20;;
60726;SDS011;46577;49.004;12.120;2023-05-10T05:03:01;23.23;;;11.43;;
60726;SDS011;46577;49.004;12.120;2023-05-10T05:05:26;23.30;;;10.30;;
60726;SDS011;46577;49.004;12.120;2023-05-10T05:07:52;17.53;;;10.13;;
60726;SDS011;46577;49.004;12.120;2023-05-10T05:10:17;11.87;;;9.83;;
60726;SDS011;46577;49.004;12.120;2023-05-10T05:12:43;18.20;;;10.53;;
60726;SDS011;46577;49.004;12.120;2023-05-10T05:15:09;15.00;;;11.23;;
60726;SDS011;46577;49.004;12.120;2023-05-10T05:17:35;17.10;;;11.53;;
60726;SDS011;46577;49.004;12.120;2023-05-10T05:20:01;14.70;;;10.77;;
60726;SDS011;46577;49.004;12.120;2023-05-10T05:22:27;13.77;;;10.53;;
60726;SDS011;46577;49.004;12.120;2023-05-10T05:24:53;15.93;;;9.97;;
60726;SDS011;46577;49.004;12.120;2023-05-10T05:27:23;15.80;;;10.50;;
60726;SDS011;46577;49.004;12.120;2023-05-10T05:29:52;21.17;;;12.60;;
60726;SDS011;46577;49.004;12.120;2023-05-10T05:32:18;27.70;;;12.90;;
60726;SDS011;46577;49.004;12.120;2023-05-10T05:34:44;19.10;;;11.00;;
60726;SDS011;46577;49.004;12.120;2023-05-10T05:37:14;18.23;;;11.67;;
60726;SDS011;46577;49.004;12.120;2023-05-10T05:39:40;20.03;;;10.50;;
60726;SDS011;46577;49.004;12.120;2023-05-10T05:42:05;19.10;;;12.00;;
60726;SDS011;46577;49.004;12.120;2023-05-10T05:44:31;15.20;;;10.90;;
60726;SDS011;46577;49.004;12.120;2023-05-10T05:46:56;16.00;;;11.70;;
60726;SDS011;46577;49.004;12.120;2023-05-10T05:49:22;14.60;;;11.50;;
60726;SDS011;46577;49.004;12.120;2023-05-10T05:51:48;20.00;;;10.30;;
60726;SDS011;46577;49.004;12.120;2023-05-10T05:54:15;16.40;;;11.50;;
60726;SDS011;46577;49.004;12.120;2023-05-10T05:56:40;17.33;;;12.33;;
60726;SDS011;46577;49.004;12.120;2023-05-10T05:59:06;17.53;;;13.10;;
60726;SDS011;46577;49.004;12.120;2023-05-10T06:01:32;18.70;;;12.30;;
60726;SDS011;46577;49.004;12.120;2023-05-10T06:03:57;17.83;;;11.30;;
60726;SDS011;46577;49.004;12.120;2023-05-10T06:06:23;16.03;;;11.13;;
60726;SDS011;46577;49.004;12.120;2023-05-10T06:08:48;14.60;;;11.63;;
60726;SDS011;46577;49.004;12.120;2023-05-10T06:11:14;21.97;;;12.60;;
60726;SDS011;46577;49.004;12.120;2023-05-10T06:13:40;15.63;;;12.43;;
60726;SDS011;46577;49.004;12.120;2023-05-10T06:16:07;15.37;;;11.47;;
60726;SDS011;46577;49.004;12.120;2023-05-10T06:18:32;19.80;;;12.73;;
60726;SDS011;46577;49.004;12.120;2023-05-10T06:20:58;15.20;;;11.20;;
60726;SDS011;46577;49.004;12.120;2023-05-10T06:23:24;18.77;;;12.50;;
60726;SDS011;46577;49.004;12.120;2023-05-10T06:25:50;20.03;;;14.20;;
60726;SDS011;46577;49.004;12.120;2023-05-10T06:28:16;18.00;;;12.73;;
60726;SDS011;46577;49.004;12.120;2023-05-10T06:30:42;17.43;;;11.63;;
60726;SDS011;46577;49.004;12.120;2023-05-10T06:33:08;19.40;;;12.17;;
60726;SDS011;46577;49.004;12.120;2023-05-10T06:35:33;13.37;;;10.90;;
60726;SDS011;46577;49.004;12.120;2023-05-10T06:37:59;17.80;;;12.30;;
60726;SDS011;46577;49.004;12.120;2023-05-10T06:40:25;15.13;;;10.80;;
60726;SDS011;46577;49.004;12.120;2023-05-10T06:42:51;20.27;;;11.47;;
60726;SDS011;46577;49.004;12.120;2023-05-10T06:45:16;14.60;;;10.80;;
60726;SDS011;46577;49.004;12.120;2023-05-10T06:47:42;15.00;;;10.60;;
60726;SDS011;46577;49.004;12.120;2023-05-10T06:50:08;12.50;;;9.83;;
60726;SDS011;46577;49.004;12.120;2023-05-10T06:52:34;19.40;;;11.63;;
60726;SDS011;46577;49.004;12.120;2023-05-10T06:55:00;15.77;;;11.80;;
60726;SDS011;46577;49.004;12.120;2023-05-10T06:57:26;14.83;;;12.00;;
60726;SDS011;46577;49.004;12.120;2023-05-10T06:59:52;17.23;;;11.13;;
60726;SDS011;46577;49.004;12.120;2023-05-10T07:02:17;16.50;;;11.33;;
60726;SDS011;46577;49.004;12.120;2023-05-10T07:04:43;17.17;;;11.10;;
60726;SDS011;46577;49.004;12.120;2023-05-10T07:07:09;17.23;;;11.50;;
60726;SDS011;46577;49.004;12.120;2023-05-10T07:09:34;42.13;;;12.00;;
60726;SDS011;46577;49.004;12.120;2023-05-10T07:12:00;13.53;;;10.67;;
60726;SDS011;46577;49.004;12.120;2023-05-10T07:14:27;15.87;;;11.80;;
60726;SDS011;46577;49.004;12.120;2023-05-10T07:16:52;14.60;;;11.63;;
60726;SDS011;46577;49.004;12.120;2023-05-10T07:19:18;18.40;;;12.13;;
60726;SDS011;46577;49.004;12.120;2023-05-10T07:21:44;25.87;;;14.53;;
60726;SDS011;46577;49.004;12.120;2023-05-10T07:24:10;14.13;;;12.23;;
60726;SDS011;46577;49.004;12.120;2023-05-10T07:26:36;16.63;;;12.57;;
60726;SDS011;46577;49.004;12.120;2023-05-10T07:29:02;18.07;;;13.57;;
60726;SDS011;46577;49.004;12.120;2023-05-10T07:31:31;18.17;;;12.70;;
60726;SDS011;46577;49.004;12.120;2023-05-10T07:33:56;22.10;;;14.27;;
60726;SDS011;46577;49.004;12.120;2023-05-10T07:36:22;20.50;;;13.80;;
60726;SDS011;46577;49.004;12.120;2023-05-10T07:38:47;16.40;;;13.77;;
60726;SDS011;46577;49.004;12.120;2023-05-10T07:41:14;16.33;;;11.57;;
60726;SDS011;46577;49.004;12.120;2023-05-10T07:43:40;14.10;;;12.00;;
60726;SDS011;46577;49.004;12.120;2023-05-10T07:46:05;13.77;;;11.13;;
60726;SDS011;46577;49.004;12.120;2023-05-10T07:48:31;18.10;;;12.20;;
60726;SDS011;46577;49.004;12.120;2023-05-10T07:50:57;11.67;;;10.30;;
60726;SDS011;46577;49.004;12.120;2023-05-10T07:53:22;18.73;;;11.57;;
60726;SDS011;46577;49.004;12.120;2023-05-10T07:55:51;12.83;;;10.83;;
60726;SDS011;46577;49.004;12.120;2023-05-10T07:58:23;14.10;;;11.97;;
60726;SDS011;46577;49.004;12.120;2023-05-10T08:00:49;19.73;;;9.63;;
60726;SDS011;46577;49.004;12.120;2023-05-10T08:03:14;12.77;;;10.73;;
60726;SDS011;46577;49.004;12.120;2023-05-10T08:05:40;17.37;;;10.00;;
60726;SDS011;46577;49.004;12.120;2023-05-10T08:08:06;16.23;;;10.07;;
60726;SDS011;46577;49.004;12.120;2023-05-10T08:10:32;11.10;;;9.17;;
60726;SDS011;46577;49.004;12.120;2023-05-10T08:12:58;15.57;;;10.73;;
60726;SDS011;46577;49.004;12.120;2023-05-10T08:15:23;17.80;;;10.03;;
60726;SDS011;46577;49.004;12.120;2023-05-10T08:17:51;17.87;;;10.70;;
60726;SDS011;46577;49.004;12.120;2023-05-10T08:20:16;16.70;;;11.50;;
60726;SDS011;46577;49.004;12.120;2023-05-10T08:22:44;18.17;;;11.10;;
60726;SDS011;46577;49.004;12.120;2023-05-10T08:25:10;25.13;;;11.57;;
60726;SDS011;46577;49.004;12.120;2023-05-10T08:27:35;14.17;;;10.77;;
60726;SDS011;46577;49.004;12.120;2023-05-10T08:30:01;14.90;;;11.07;;
60726;SDS011;46577;49.004;12.120;2023-05-10T08:32:27;16.73;;;11.30;;
60726;SDS011;46577;49.004;12.120;2023-05-10T08:34:52;11.77;;;9.13;;
60726;SDS011;46577;49.004;12.120;2023-05-10T08:37:18;22.63;;;10.93;;
60726;SDS011;46577;49.004;12.120;2023-05-10T08:39:43;13.43;;;9.47;;
60726;SDS011;46577;49.004;12.120;2023-05-10T08:42:12;14.07;;;9.00;;
60726;SDS011;46577;49.004;12.120;2023-05-10T08:44:44;16.50;;;9.53;;
60726;SDS011;46577;49.004;12.120;2023-05-10T08:47:13;13.20;;;9.80;;
60726;SDS011;46577;49.004;12.120;2023-05-10T08:49:41;12.43;;;10.20;;
60726;SDS011;46577;49.004;12.120;2023-05-10T08:52:08;16.23;;;9.53;;
60726;SDS011;46577;49.004;12.120;2023-05-10T08:54:38;10.90;;;8.30;;
60726;SDS011;46577;49.004;12.120;2023-05-10T08:57:04;14.50;;;8.40;;
60726;SDS011;46577;49.004;12.120;2023-05-10T08:59:29;12.30;;;9.83;;
60726;SDS011;46577;49.004;12.120;2023-05-10T09:01:58;16.13;;;9.80;;
60726;SDS011;46577;49.004;12.120;2023-05-10T09:04:25;13.13;;;8.67;;
60726;SDS011;46577;49.004;12.120;2023-05-10T09:06:51;11.27;;;8.10;;
60726;SDS011;46577;49.004;12.120;2023-05-10T09:09:17;13.00;;;7.63;;
60726;SDS011;46577;49.004;12.120;2023-05-10T09:11:44;9.80;;;8.80;;
60726;SDS011;46577;49.004;12.120;2023-05-10T09:14:10;15.20;;;9.60;;
60726;SDS011;46577;49.004;12.120;2023-05-10T09:16:40;12.00;;;10.20;;
60726;SDS011;46577;49.004;12.120;2023-05-10T09:19:06;12.30;;;9.00;;
60726;SDS011;46577;49.004;12.120;2023-05-10T09:21:34;15.97;;;8.70;;
60726;SDS011;46577;49.004;12.120;2023-05-10T09:24:03;14.83;;;8.57;;
60726;SDS011;46577;49.004;12.120;2023-05-10T09:26:30;12.00;;;9.03;;
60726;SDS011;46577;49.004;12.120;2023-05-10T09:28:56;7.17;;;5.03;;
60726;SDS011;46577;49.004;12.120;2023-05-10T09:31:23;2.40;;;2.10;;
60726;SDS011;46577;49.004;12.120;2023-05-10T09:33:52;1.60;;;1.50;;
60726;SDS011;46577;49.004;12.120;2023-05-10T09:36:18;1.10;;;1.07;;
60726;SDS011;46577;49.004;12.120;2023-05-10T09:38:51;1.63;;;1.30;;
60726;SDS011;46577;49.004;12.120;2023-05-10T09:41:23;1.77;;;1.20;;
60726;SDS011;46577;49.004;12.120;2023-05-10T09:43:50;1.57;;;0.90;;
60726;SDS011;46577;49.004;12.120;2023-05-10T09:46:21;11.00;;;1.10;;
60726;SDS011;46577;49.004;12.120;2023-05-10T09:48:50;1.63;;;1.20;;
60726;SDS011;46577;49.004;12.120;2023-05-10T09:51:19;3.10;;;1.20;;
60726;SDS011;46577;49.004;12.120;2023-05-10T09:53:45;1.00;;;1.00;;
60726;SDS011;46577;49.004;12.120;2023-05-10T09:56:11;1.37;;;1.00;;
60726;SDS011;46577;49.004;12.120;2023-05-10T09:58:36;1.27;;;1.07;;
60726;SDS011;46577;49.004;12.120;2023-05-10T10:01:05;7.10;;;1.00;;
60726;SDS011;46577;49.004;12.120;2023-05-10T10:03:40;1.97;;;1.00;;
60726;SDS011;46577;49.004;12.120;2023-05-10T10:06:08;1.00;;;1.00;;
60726;SDS011;46577;49.004;12.120;2023-05-10T10:08:34;1.00;;;0.90;;
60726;SDS011;46577;49.004;12.120;2023-05-10T10:10:59;2.30;;;1.20;;
60726;SDS011;46577;49.004;12.120;2023-05-10T10:13:26;2.97;;;1.10;;
60726;SDS011;46577;49.004;12.120;2023-05-10T10:15:52;2.13;;;0.83;;
60726;SDS011;46577;49.004;12.120;2023-05-10T10:18:19;1.23;;;0.90;;
60726;SDS011;46577;49.004;12.120;2023-05-10T10:20:48;1.90;;;1.03;;
60726;SDS011;46577;49.004;12.120;2023-05-10T10:23:14;1.20;;;1.10;;
60726;SDS011;46577;49.004;12.120;2023-05-10T10:25:40;0.80;;;0.80;;
60726;SDS011;46577;49.004;12.120;2023-05-10T10:30:51;2.10;;;0.77;;
60726;SDS011;46577;49.004;12.120;2023-05-10T10:33:30;3.50;;;0.90;;
60726;SDS011;46577;49.004;12.120;2023-05-10T10:36:02;0.83;;;0.80;;
60726;SDS011;46577;49.004;12.120;2023-05-10T10:41:28;1.37;;;0.80;;
60726;SDS011;46577;49.004;12.120;2023-05-10T10:52:32;1.60;;;0.87;;
60726;SDS011;46577;49.004;12.120;2023-05-10T10:55:07;2.70;;;1.03;;
60726;SDS011;46577;49.004;12.120;2023-05-10T11:00:19;2.20;;;1.07;;
60726;SDS011;46577;49.004;12.120;2023-05-10T11:02:46;4.73;;;1.00;;
60726;SDS011;46577;49.004;12.120;2023-05-10T11:10:23;9.90;;;1.90;;
60726;SDS011;46577;49.004;12.120;2023-05-10T11:12:50;4.87;;;1.10;;
60726;SDS011;46577;49.004;12.120;2023-05-10T11:15:18;2.83;;;1.20;;
60726;SDS011;46577;49.004;12.120;2023-05-10T11:17:44;1.40;;;1.30;;
60726;SDS011;46577;49.004;12.120;2023-05-10T11:20:15;3.60;;;1.20;;
60726;SDS011;46577;49.004;12.120;2023-05-10T11:25:17;2.13;;;1.10;;
60726;SDS011;46577;49.004;12.120;2023-05-10T11:27:42;1.13;;;1.03;;
60726;SDS011;46577;49.004;12.120;2023-05-10T11:30:10;1.37;;;1.23;;
60726;SDS011;46577;49.004;12.120;2023-05-10T11:32:39;12.20;;;1.40;;
60726;SDS011;46577;49.004;12.120;2023-05-10T11:35:08;8.30;;;1.80;;
60726;SDS011;46577;49.004;12.120;2023-05-10T11:37:35;2.73;;;1.07;;
60726;SDS011;46577;49.004;12.120;2023-05-10T11:40:01;8.50;;;0.93;;
60726;SDS011;46577;49.004;12.120;2023-05-10T11:42:27;1.00;;;1.00;;
60726;SDS011;46577;49.004;12.120;2023-05-10T11:44:53;2.93;;;1.00;;
60726;SDS011;46577;49.004;12.120;2023-05-10T11:47:19;1.03;;;0.93;;
60726;SDS011;46577;49.004;12.120;2023-05-10T11:49:45;3.20;;;1.10;;
60726;SDS011;46577;49.004;12.120;2023-05-10T11:52:11;0.73;;;0.70;;
60726;SDS011;46577;49.004;12.120;2023-05-10T11:54:37;0.93;;;0.93;;
60726;SDS011;46577;49.004;12.120;2023-05-10T11:57:02;1.67;;;1.47;;
60726;SDS011;46577;49.004;12.120;2023-05-10T11:59:28;2.10;;;1.60;;
60726;SDS011;46577;49.004;12.120;2023-05-10T12:01:54;2.43;;;0.90;;
60726;SDS011;46577;49.004;12.120;2023-05-10T12:04:20;1.43;;;1.03;;
60726;SDS011;46577;49.004;12.120;2023-05-10T12:06:46;3.77;;;1.07;;
60726;SDS011;46577;49.004;12.120;2023-05-10T12:09:12;1.23;;;1.00;;
60726;SDS011;46577;49.004;12.120;2023-05-10T12:11:38;1.67;;;0.80;;
60726;SDS011;46577;49.004;12.120;2023-05-10T12:14:05;0.87;;;0.87;;
60726;SDS011;46577;49.004;12.120;2023-05-10T12:16:33;0.87;;;0.83;;
60726;SDS011;46577;49.004;12.120;2023-05-10T12:18:59;1.10;;;1.00;;
60726;SDS011;46577;49.004;12.120;2023-05-10T12:21:25;2.03;;;0.90;;
60726;SDS011;46577;49.004;12.120;2023-05-10T12:23:58;1.10;;;1.00;;
60726;SDS011;46577;49.004;12.120;2023-05-10T12:26:25;0.73;;;0.73;;
60726;SDS011;46577;49.004;12.120;2023-05-10T12:28:53;1.03;;;0.90;;
60726;SDS011;46577;49.004;12.120;2023-05-10T12:31:20;0.97;;;0.90;;
60726;SDS011;46577;49.004;12.120;2023-05-10T12:33:46;10.60;;;1.37;;
60726;SDS011;46577;49.004;12.120;2023-05-10T12:36:14;7.77;;;1.60;;
60726;SDS011;46577;49.004;12.120;2023-05-10T12:38:41;4.00;;;1.40;;
60726;SDS011;46577;49.004;12.120;2023-05-10T12:41:17;3.10;;;1.00;;
60726;SDS011;46577;49.004;12.120;2023-05-10T12:43:43;3.60;;;1.70;;
60726;SDS011;46577;49.004;12.120;2023-05-10T12:46:11;3.33;;;1.13;;
60726;SDS011;46577;49.004;12.120;2023-05-10T12:48:38;3.17;;;1.17;;
60726;SDS011;46577;49.004;12.120;2023-05-10T12:51:05;8.33;;;1.63;;
60726;SDS011;46577;49.004;12.120;2023-05-10T12:53:36;8.47;;;2.63;;
60726;SDS011;46577;49.004;12.120;2023-05-10T12:56:02;5.97;;;1.40;;
60726;SDS011;46577;49.004;12.120;2023-05-10T12:58:28;5.33;;;1.43;;
60726;SDS011;46577;49.004;12.120;2023-05-10T13:00:54;4.80;;;1.40;;
60726;SDS011;46577;49.004;12.120;2023-05-10T13:03:21;2.43;;;1.20;;
60726;SDS011;46577;49.004;12.120;2023-05-10T13:05:47;1.93;;;1.30;;
60726;SDS011;46577;49.004;12.120;2023-05-10T13:08:12;2.10;;;1.10;;
60726;SDS011;46577;49.004;12.120;2023-05-10T13:10:38;2.80;;;1.37;;
60726;SDS011;46577;49.004;12.120;2023-05-10T13:13:04;4.43;;;1.37;;
60726;SDS011;46577;49.004;12.120;2023-05-10T13:15:30;1.07;;;1.00;;
60726;SDS011;46577;49.004;12.120;2023-05-10T13:17:55;1.70;;;1.07;;
60726;SDS011;46577;49.004;12.120;2023-05-10T13:20:21;1.23;;;1.10;;
60726;SDS011;46577;49.004;12.120;2023-05-10T13:22:47;1.40;;;1.20;;
60726;SDS011;46577;49.004;12.120;2023-05-10T13:25:12;3.70;;;1.13;;
60726;SDS011;46577;49.004;12.120;2023-05-10T13:27:41;1.20;;;1.00;;
60726;SDS011;46577;49.004;12.120;2023-05-10T13:30:07;3.43;;;1.20;;
60726;SDS011;46577;49.004;12.120;2023-05-10T13:32:34;1.73;;;1.00;;
60726;SDS011;46577;49.004;12.120;2023-05-10T13:34:59;5.83;;;1.10;;
60726;SDS011;46577;49.004;12.120;2023-05-10T13:37:25;1.13;;;1.00;;
60726;SDS011;46577;49.004;12.120;2023-05-10T13:39:51;2.20;;;1.10;;
60726;SDS011;46577;49.004;12.120;2023-05-10T13:42:17;1.77;;;1.37;;
60726;SDS011;46577;49.004;12.120;2023-05-10T13:44:43;2.27;;;1.63;;
60726;SDS011;46577;49.004;12.120;2023-05-10T13:47:08;4.30;;;1.63;;
60726;SDS011;46577;49.004;12.120;2023-05-10T13:49:35;6.97;;;1.40;;
60726;SDS011;46577;49.004;12.120;2023-05-10T13:52:00;2.30;;;1.30;;
60726;SDS011;46577;49.004;12.120;2023-05-10T13:54:31;2.67;;;1.20;;
60726;SDS011;46577;49.004;12.120;2023-05-10T13:56:58;3.77;;;1.23;;
60726;SDS011;46577;49.004;12.120;2023-05-10T13:59:24;1.53;;;1.43;;
60726;SDS011;46577;49.004;12.120;2023-05-10T14:01:49;4.93;;;1.80;;
60726;SDS011;46577;49.004;12.120;2023-05-10T14:04:15;1.80;;;1.03;;
60726;SDS011;46577;49.004;12.120;2023-05-10T14:06:41;2.57;;;1.30;;
60726;SDS011;46577;49.004;12.120;2023-05-10T14:09:06;3.47;;;1.43;;
60726;SDS011;46577;49.004;12.120;2023-05-10T14:11:32;2.50;;;1.23;;
60726;SDS011;46577;49.004;12.120;2023-05-10T14:13:58;1.60;;;1.50;;
60726;SDS011;46577;49.004;12.120;2023-05-10T14:16:23;6.87;;;1.40;;
60726;SDS011;46577;49.004;12.120;2023-05-10T14:18:49;3.90;;;1.50;;
60726;SDS011;46577;49.004;12.120;2023-05-10T14:21:14;6.97;;;1.20;;
60726;SDS011;46577;49.004;12.120;2023-05-10T14:23:40;13.93;;;1.93;;
60726;SDS011;46577;49.004;12.120;2023-05-10T14:26:06;6.60;;;1.70;;
60726;SDS011;46577;49.004;12.120;2023-05-10T14:28:31;2.20;;;1.30;;
60726;SDS011;46577;49.004;12.120;2023-05-10T14:30:57;1.60;;;1.40;;
60726;SDS011;46577;49.004;12.120;2023-05-10T14:33:23;4.17;;;2.03;;
60726;SDS011;46577;49.004;12.120;2023-05-10T14:35:49;5.43;;;1.80;;
60726;SDS011;46577;49.004;12.120;2023-05-10T14:38:15;9.30;;;2.30;;
60726;SDS011;46577;49.004;12.120;2023-05-10T14:40:41;4.30;;;2.90;;
60726;SDS011;46577;49.004;12.120;2023-05-10T14:43:07;3.93;;;2.33;;
60726;SDS011;46577;49.004;12.120;2023-05-10T14:45:33;2.73;;;2.10;;
60726;SDS011;46577;49.004;12.120;2023-05-10T14:47:59;6.27;;;2.00;;
60726;SDS011;46577;49.004;12.120;2023-05-10T14:50:26;2.20;;;2.00;;
60726;SDS011;46577;49.004;12.120;2023-05-10T14:52:51;2.97;;;1.60;;
60726;SDS011;46577;49.004;12.120;2023-05-10T14:55:17;5.57;;;2.10;;
60726;SDS011;46577;49.004;12.120;2023-05-10T14:57:42;3.30;;;2.50;;
60726;SDS011;46577;49.004;12.120;2023-05-10T15:00:09;2.60;;;2.40;;
60726;SDS011;46577;49.004;12.120;2023-05-10T15:02:35;2.50;;;2.30;;
60726;SDS011;46577;49.004;12.120;2023-05-10T15:05:01;3.43;;;2.37;;
60726;SDS011;46577;49.004;12.120;2023-05-10T15:07:27;4.60;;;2.50;;
60726;SDS011;46577;49.004;12.120;2023-05-10T15:09:52;3.23;;;2.30;;